createdAt,value
2022-10-11T00:01:35.287Z,1.85
2022-10-11T00:04:01.870Z,1.70
2022-10-11T00:06:28.346Z,1.80
2022-10-11T00:08:54.856Z,2.05
2022-10-11T00:11:21.394Z,1.60
2022-10-11T00:13:47.879Z,1.65
2022-10-11T00:16:15.527Z,1.60
2022-10-11T00:18:42.540Z,1.73
2022-10-11T00:21:12.126Z,2.10
2022-10-11T00:23:38.818Z,2.22
2022-10-11T00:26:07.622Z,2.47
2022-10-11T00:28:35.121Z,1.60
2022-10-11T00:31:02.021Z,1.98
2022-10-11T00:33:28.795Z,1.88
2022-10-11T00:35:55.765Z,1.80
2022-10-11T00:38:22.313Z,1.90
2022-10-11T00:40:48.762Z,1.75
2022-10-11T00:43:21.175Z,1.77
2022-10-11T00:45:56.740Z,2.10
2022-10-11T00:48:27.563Z,2.42
2022-10-11T00:50:55.844Z,1.77
2022-10-11T00:53:22.858Z,1.90
2022-10-11T00:55:53.520Z,2.17
2022-10-11T00:58:20.890Z,1.55
2022-10-11T01:00:48.076Z,1.60
2022-10-11T01:03:16.321Z,2.28
2022-10-11T01:05:42.873Z,2.17
2022-10-11T01:08:09.433Z,2.03
2022-10-11T01:10:35.917Z,1.60
2022-10-11T01:13:36.224Z,2.08
2022-10-11T01:16:24.489Z,1.85
2022-10-11T01:19:02.511Z,1.95
2022-10-11T01:21:39.779Z,1.85
2022-10-11T01:24:12.240Z,2.05
2022-10-11T01:26:55.653Z,1.50
2022-10-11T01:29:46.884Z,1.65
2022-10-11T01:32:29.786Z,1.63
2022-10-11T01:35:06.378Z,1.75
2022-10-11T01:37:41.530Z,1.70
2022-10-11T01:40:12.909Z,2.38
2022-10-11T01:42:40.386Z,1.65
2022-10-11T01:45:14.382Z,1.85
2022-10-11T01:47:42.544Z,2.28
2022-10-11T01:50:34.523Z,2.17
2022-10-11T01:53:11.833Z,1.67
2022-10-11T01:55:45.884Z,2.30
2022-10-11T01:58:56.262Z,2.45
2022-10-11T02:01:56.831Z,2.55
2022-10-11T02:04:49.463Z,1.90
2022-10-11T02:07:26.425Z,2.17
2022-10-11T02:10:01.335Z,2.65
2022-10-11T02:12:36.100Z,1.90
2022-10-11T02:15:03.951Z,2.72
2022-10-11T02:17:39.072Z,2.15
2022-10-11T02:20:10.555Z,2.75
2022-10-11T02:22:39.198Z,2.20
2022-10-11T02:25:09.486Z,2.78
2022-10-11T02:27:38.549Z,2.80
2022-10-11T02:30:07.609Z,3.88
2022-10-11T02:32:35.488Z,3.28
2022-10-11T02:35:02.592Z,2.83
2022-10-11T02:37:51.774Z,2.90
2022-10-11T02:40:25.161Z,3.08
2022-10-11T02:42:59.245Z,3.55
2022-10-11T02:45:30.677Z,2.92
2022-10-11T02:47:57.782Z,2.63
2022-10-11T02:50:24.265Z,3.55
2022-10-11T02:52:50.766Z,2.97
2022-10-11T02:55:17.413Z,2.67
2022-10-11T02:57:43.891Z,3.17
2022-10-11T03:00:11.197Z,2.92
2022-10-11T03:02:37.664Z,3.42
2022-10-11T03:05:04.361Z,2.97
2022-10-11T03:07:30.994Z,3.13
2022-10-11T03:09:57.508Z,3.22
2022-10-11T03:12:24.009Z,3.30
2022-10-11T03:14:50.486Z,2.70
2022-10-11T03:17:35.755Z,3.65
2022-10-11T03:20:04.236Z,3.17
2022-10-11T03:22:30.723Z,3.15
2022-10-11T03:25:02.504Z,2.95
2022-10-11T03:27:30.546Z,3.22
2022-10-11T03:29:57.875Z,3.17
2022-10-11T03:32:24.492Z,3.03
2022-10-11T03:34:50.971Z,2.65
2022-10-11T03:37:17.477Z,2.97
2022-10-11T03:39:45.576Z,3.25
2022-10-11T03:42:12.716Z,2.72
2022-10-11T03:44:39.200Z,3.88
2022-10-11T03:47:06.194Z,3.03
2022-10-11T03:49:32.799Z,3.17
2022-10-11T03:51:59.297Z,3.17
2022-10-11T03:54:26.190Z,2.88
2022-10-11T03:56:52.921Z,3.15
2022-10-11T03:59:19.547Z,3.22
2022-10-11T04:01:46.117Z,2.75
2022-10-11T04:04:12.676Z,2.90
2022-10-11T04:06:39.134Z,2.88
2022-10-11T04:09:05.594Z,2.92
2022-10-11T04:11:32.752Z,3.50
2022-10-11T04:13:59.282Z,2.80
2022-10-11T04:16:25.763Z,2.28
2022-10-11T04:18:52.335Z,2.20
2022-10-11T04:21:18.819Z,2.42
2022-10-11T04:23:45.508Z,1.90
2022-10-11T04:26:12.064Z,2.70
2022-10-11T04:28:38.739Z,2.30
2022-10-11T04:31:06.630Z,2.58
2022-10-11T04:33:33.171Z,2.90
2022-10-11T04:35:59.822Z,2.08
2022-10-11T04:38:26.310Z,2.75
2022-10-11T04:40:52.832Z,1.98
2022-10-11T04:43:19.417Z,2.15
2022-10-11T04:45:46.009Z,1.70
2022-10-11T04:48:12.637Z,1.75
2022-10-11T04:50:39.107Z,1.90
2022-10-11T04:53:05.683Z,1.85
2022-10-11T04:55:32.181Z,1.60
2022-10-11T04:57:58.742Z,1.85
2022-10-11T05:00:25.238Z,1.65
2022-10-11T05:02:52.990Z,1.85
2022-10-11T05:05:19.472Z,1.77
2022-10-11T05:07:46.094Z,1.70
2022-10-11T05:10:12.683Z,1.40
2022-10-11T05:12:39.166Z,1.55
2022-10-11T05:15:06.586Z,2.08
2022-10-11T05:17:33.101Z,1.83
2022-10-11T05:19:59.563Z,1.58
2022-10-11T05:22:26.090Z,1.83
2022-10-11T05:24:52.591Z,1.50
2022-10-11T05:27:19.086Z,1.70
2022-10-11T05:29:45.851Z,2.10
2022-10-11T05:32:12.316Z,1.40
2022-10-11T05:34:38.816Z,1.55
2022-10-11T05:37:05.382Z,1.80
2022-10-11T05:39:32.332Z,1.27
2022-10-11T05:41:58.940Z,1.58
2022-10-11T05:44:25.596Z,1.83
2022-10-11T05:46:52.164Z,1.98
2022-10-11T05:49:18.638Z,1.50
2022-10-11T05:51:45.210Z,1.33
2022-10-11T05:54:11.675Z,1.55
2022-10-11T05:56:38.170Z,1.73
2022-10-11T05:59:05.107Z,1.90
2022-10-11T06:01:31.738Z,1.83
2022-10-11T06:03:58.364Z,1.52
2022-10-11T06:06:24.864Z,1.92
2022-10-11T06:08:51.349Z,1.45
2022-10-11T06:11:21.215Z,1.67
2022-10-11T06:13:48.742Z,1.00
2022-10-11T06:16:16.068Z,1.45
2022-10-11T06:18:42.572Z,1.55
2022-10-11T06:21:09.058Z,1.35
2022-10-11T06:23:35.550Z,1.48
2022-10-11T06:26:08.298Z,1.60
2022-10-11T06:28:36.439Z,1.50
2022-10-11T06:31:05.299Z,1.60
2022-10-11T06:33:32.411Z,1.58
2022-10-11T06:36:00.530Z,1.80
2022-10-11T06:38:27.281Z,2.10
2022-10-11T06:40:54.040Z,1.38
2022-10-11T06:43:20.744Z,1.92
2022-10-11T06:45:47.292Z,1.60
2022-10-11T06:48:13.931Z,1.98
2022-10-11T06:50:59.168Z,1.50
2022-10-11T06:53:27.379Z,1.40
2022-10-11T06:55:53.922Z,1.60
2022-10-11T06:58:20.388Z,1.30
2022-10-11T07:00:46.922Z,1.52
2022-10-11T07:03:13.443Z,1.80
2022-10-11T07:05:39.969Z,2.13
2022-10-11T07:08:06.477Z,1.80
2022-10-11T07:10:33.039Z,1.55
2022-10-11T07:12:59.504Z,2.33
2022-10-11T07:15:25.960Z,1.70
2022-10-11T07:17:52.445Z,1.90
2022-10-11T07:20:19.201Z,1.75
2022-10-11T07:22:45.683Z,2.33
2022-10-11T07:25:12.153Z,1.90
2022-10-11T07:27:38.646Z,1.77
2022-10-11T07:30:05.742Z,2.08
2022-10-11T07:32:32.204Z,1.83
2022-10-11T07:34:58.712Z,1.95
2022-10-11T07:37:25.238Z,2.20
2022-10-11T07:39:51.832Z,2.38
2022-10-11T07:42:18.404Z,1.63
2022-10-11T07:44:44.983Z,1.80
2022-10-11T07:47:11.676Z,1.58
2022-10-11T07:49:38.222Z,1.48
2022-10-11T07:52:04.827Z,1.40
2022-10-11T07:54:31.725Z,1.83
2022-10-11T07:56:58.215Z,1.92
2022-10-11T07:59:24.695Z,1.60
2022-10-11T08:01:51.231Z,1.52
2022-10-11T08:04:17.922Z,1.77
2022-10-11T08:06:44.381Z,1.63
2022-10-11T08:09:12.190Z,1.05
2022-10-11T08:11:39.754Z,1.35
2022-10-11T08:14:08.654Z,2.00
2022-10-11T08:16:36.092Z,1.30
2022-10-11T08:19:03.320Z,1.83
2022-10-11T08:21:30.258Z,1.63
2022-10-11T08:23:56.745Z,1.65
2022-10-11T08:26:24.398Z,1.40
2022-10-11T08:28:50.906Z,1.98
2022-10-11T08:31:17.560Z,1.30
2022-10-11T08:33:44.205Z,1.73
2022-10-11T08:36:11.717Z,1.30
2022-10-11T08:38:39.300Z,1.70
2022-10-11T08:41:27.259Z,1.48
2022-10-11T08:44:09.141Z,1.52
2022-10-11T08:46:36.735Z,1.38
2022-10-11T08:49:04.193Z,1.77
2022-10-11T08:51:33.856Z,1.65
2022-10-11T08:54:07.884Z,1.60
2022-10-11T08:56:39.911Z,1.50
2022-10-11T08:59:12.384Z,1.20
2022-10-11T09:01:44.445Z,2.60
2022-10-11T09:04:14.601Z,1.13
2022-10-11T09:07:05.433Z,1.20
2022-10-11T09:10:09.275Z,1.55
2022-10-11T09:12:45.999Z,1.35
2022-10-11T09:15:28.890Z,1.25
2022-10-11T09:18:13.887Z,2.15
2022-10-11T09:20:52.905Z,1.70
2022-10-11T09:23:28.350Z,1.33
2022-10-11T09:25:58.858Z,1.33
2022-10-11T09:28:44.456Z,1.48
2022-10-11T09:31:11.629Z,1.75
2022-10-11T09:33:48.238Z,1.45
2022-10-11T09:36:52.460Z,1.60
2022-10-11T09:39:28.828Z,1.08
2022-10-11T09:42:02.635Z,2.08
2022-10-11T09:44:33.018Z,0.90
2022-10-11T09:46:59.604Z,1.60
2022-10-11T09:49:39.140Z,1.05
2022-10-11T09:52:11.169Z,1.55
2022-10-11T09:54:49.234Z,1.20
2022-10-11T09:57:25.939Z,1.00
2022-10-11T10:00:00.484Z,1.25
2022-10-11T10:02:29.390Z,1.17
2022-10-11T10:05:21.184Z,1.00
2022-10-11T10:08:22.753Z,1.45
2022-10-11T10:11:10.202Z,1.52
2022-10-11T10:13:47.057Z,1.27
2022-10-11T10:16:29.954Z,1.13
2022-10-11T10:19:29.046Z,1.13
2022-10-11T10:21:56.254Z,1.55
2022-10-11T10:24:40.000Z,0.95
2022-10-11T10:27:21.632Z,1.33
2022-10-11T10:30:08.900Z,1.10
2022-10-11T10:32:48.824Z,1.30
2022-10-11T10:35:27.580Z,1.40
2022-10-11T10:38:09.340Z,1.33
2022-10-11T10:40:43.547Z,1.13
2022-10-11T10:43:15.670Z,1.35
2022-10-11T10:46:21.682Z,1.27
2022-10-11T10:52:11.154Z,1.23
2022-10-11T10:54:48.812Z,1.08
2022-10-11T10:57:41.384Z,1.20
2022-10-11T11:00:15.124Z,1.50
2022-10-11T11:03:01.225Z,2.25
2022-10-11T11:05:48.468Z,1.60
2022-10-11T11:08:46.689Z,0.93
2022-10-11T11:11:32.352Z,1.23
2022-10-11T11:14:07.314Z,1.67
2022-10-11T11:16:51.540Z,1.05
2022-10-11T11:19:41.213Z,1.08
2022-10-11T11:22:21.750Z,0.82
2022-10-11T11:25:12.545Z,1.10
2022-10-11T11:27:55.830Z,0.63
2022-10-11T11:30:37.333Z,0.90
2022-10-11T11:33:20.400Z,1.08
2022-10-11T11:35:54.549Z,0.93
2022-10-11T11:38:44.464Z,0.80
2022-10-11T11:41:27.090Z,0.75
2022-10-11T11:44:16.850Z,1.25
2022-10-11T11:46:52.389Z,1.65
2022-10-11T11:49:30.575Z,0.80
2022-10-11T11:51:57.779Z,0.80
2022-10-11T11:54:42.600Z,0.90
2022-10-11T11:57:15.163Z,1.30
2022-10-11T11:59:50.614Z,1.17
2022-10-11T12:02:51.124Z,1.08
2022-10-11T12:05:21.167Z,0.80
2022-10-11T12:07:57.789Z,0.68
2022-10-11T12:10:26.337Z,0.93
2022-10-11T12:13:19.238Z,1.05
2022-10-11T12:16:01.897Z,1.25
2022-10-11T12:18:30.705Z,1.17
2022-10-11T12:21:15.471Z,1.00
2022-10-11T12:23:45.051Z,0.75
2022-10-11T12:26:29.816Z,0.80
2022-10-11T12:29:25.856Z,0.80
2022-10-11T12:32:00.895Z,0.88
2022-10-11T12:37:19.736Z,1.00
2022-10-11T12:39:49.121Z,0.80
2022-10-11T12:42:35.791Z,1.05
2022-10-11T12:45:12.129Z,1.15
2022-10-11T12:47:55.883Z,0.57
2022-10-11T12:50:54.741Z,0.90
2022-10-11T12:53:57.708Z,0.80
2022-10-11T12:57:11.668Z,1.13
2022-10-11T12:59:42.535Z,1.10
2022-10-11T13:02:28.789Z,0.70
2022-10-11T13:05:17.220Z,1.02
2022-10-11T13:07:43.806Z,1.10
2022-10-11T13:10:15.827Z,1.50
2022-10-11T13:12:43.652Z,0.60
2022-10-11T13:15:15.319Z,0.63
2022-10-11T13:17:41.970Z,0.80
2022-10-11T13:20:17.916Z,0.63
2022-10-11T13:22:47.561Z,0.80
2022-10-11T13:25:28.060Z,1.00
2022-10-11T13:27:57.510Z,1.10
2022-10-11T13:30:34.189Z,0.80
2022-10-11T13:33:01.675Z,1.17
2022-10-11T13:35:28.078Z,1.00
2022-10-11T13:37:54.619Z,1.10
2022-10-11T13:40:21.933Z,0.80
2022-10-11T13:42:50.313Z,0.80
2022-10-11T13:45:24.686Z,0.80
2022-10-11T13:47:52.423Z,0.80
2022-10-11T13:50:24.066Z,1.33
2022-10-11T13:53:16.799Z,0.93
2022-10-11T13:56:00.721Z,0.75
2022-10-11T13:58:35.177Z,0.75
2022-10-11T14:01:07.945Z,0.70
2022-10-11T14:03:39.635Z,0.85
2022-10-11T14:06:06.623Z,1.00
2022-10-11T14:08:45.839Z,1.08
2022-10-11T14:11:13.197Z,0.90
2022-10-11T14:13:47.454Z,0.93
2022-10-11T14:16:20.232Z,1.10
2022-10-11T14:18:50.893Z,1.00
2022-10-11T14:21:30.079Z,0.93
2022-10-11T14:23:59.348Z,0.88
2022-10-11T14:26:27.291Z,0.95
2022-10-11T14:28:59.419Z,0.70
2022-10-11T14:31:26.791Z,1.10
2022-10-11T14:33:54.729Z,1.30
2022-10-11T14:36:22.961Z,1.40
2022-10-11T14:38:50.932Z,1.05
2022-10-11T14:41:17.448Z,1.40
2022-10-11T14:43:44.327Z,1.20
2022-10-11T14:46:21.385Z,0.95
2022-10-11T14:48:55.347Z,1.08
2022-10-11T14:51:25.646Z,0.90
2022-10-11T14:53:52.143Z,0.90
2022-10-11T14:56:21.554Z,0.95
2022-10-11T14:58:48.352Z,0.90
2022-10-11T15:01:16.326Z,0.80
2022-10-11T15:03:43.169Z,0.98
2022-10-11T15:06:30.604Z,0.90
2022-10-11T15:08:57.120Z,0.52
2022-10-11T15:11:24.466Z,1.05
2022-10-11T15:13:51.112Z,0.90
2022-10-11T15:16:20.147Z,0.93
2022-10-11T15:18:51.862Z,1.00
2022-10-11T15:21:25.126Z,1.00
2022-10-11T15:23:52.508Z,1.17
2022-10-11T15:26:24.831Z,1.30
2022-10-11T15:28:52.420Z,1.20
2022-10-11T15:31:19.364Z,1.13
2022-10-11T15:33:46.069Z,1.00
2022-10-11T15:36:15.077Z,0.63
2022-10-11T15:38:41.881Z,0.90
2022-10-11T15:41:15.495Z,1.13
2022-10-11T15:43:43.420Z,1.02
2022-10-11T15:46:15.310Z,0.70
2022-10-11T15:48:41.780Z,1.00
2022-10-11T15:51:08.231Z,1.23
2022-10-11T15:53:35.293Z,0.80
2022-10-11T15:56:04.910Z,1.20
2022-10-11T15:58:34.252Z,0.85
2022-10-11T16:01:09.369Z,1.23
2022-10-11T16:03:36.358Z,1.35
2022-10-11T16:06:05.540Z,0.80
2022-10-11T16:08:33.722Z,1.10
2022-10-11T16:11:00.569Z,1.33
2022-10-11T16:13:27.201Z,1.05
2022-10-11T16:15:54.091Z,1.20
2022-10-11T16:18:22.177Z,0.90
2022-10-11T16:20:51.401Z,1.27
2022-10-11T16:23:18.565Z,1.00
2022-10-11T16:25:45.098Z,1.33
2022-10-11T16:28:11.761Z,1.75
2022-10-11T16:30:40.059Z,1.50
2022-10-11T16:33:06.543Z,1.92
2022-10-11T16:35:33.021Z,1.70
2022-10-11T16:38:00.741Z,1.75
2022-10-11T16:40:28.330Z,1.60
2022-10-11T16:42:54.825Z,1.75
2022-10-11T16:45:21.356Z,1.30
2022-10-11T16:47:47.870Z,1.60
2022-10-11T16:50:15.008Z,1.33
2022-10-11T16:52:41.540Z,1.58
2022-10-11T16:55:08.416Z,1.20
2022-10-11T16:57:34.998Z,1.17
2022-10-11T17:00:01.477Z,1.10
2022-10-11T17:02:32.321Z,1.90
2022-10-11T17:04:59.295Z,2.20
2022-10-11T17:07:25.956Z,2.22
2022-10-11T17:09:53.471Z,2.42
2022-10-11T17:12:22.495Z,2.50
2022-10-11T17:14:49.637Z,2.72
2022-10-11T17:17:17.823Z,2.13
2022-10-11T17:19:45.570Z,1.80
2022-10-11T17:22:13.674Z,2.67
2022-10-11T17:24:40.248Z,1.90
2022-10-11T17:27:06.943Z,2.00
2022-10-11T17:29:35.568Z,1.88
2022-10-11T17:32:02.331Z,1.20
2022-10-11T17:34:28.902Z,1.58
2022-10-11T17:36:55.399Z,1.77
2022-10-11T17:39:23.243Z,2.25
2022-10-11T17:41:50.322Z,2.58
2022-10-11T17:44:18.487Z,2.45
2022-10-11T17:46:45.751Z,2.22
2022-10-11T17:49:13.067Z,2.33
2022-10-11T17:51:40.714Z,3.00
2022-10-11T17:54:12.399Z,2.90
2022-10-11T17:56:40.393Z,2.78
2022-10-11T17:59:09.083Z,2.22
2022-10-11T18:01:35.915Z,2.20
2022-10-11T18:04:04.209Z,2.50
2022-10-11T18:06:33.569Z,2.50
2022-10-11T18:09:02.083Z,2.50
2022-10-11T18:11:29.190Z,2.45
2022-10-11T18:13:55.803Z,2.55
2022-10-11T18:16:27.063Z,2.38
2022-10-11T18:18:54.810Z,2.30
2022-10-11T18:21:21.292Z,2.30
2022-10-11T18:23:47.849Z,2.13
2022-10-11T18:26:16.894Z,2.50
2022-10-11T18:28:44.033Z,2.50
2022-10-11T18:31:14.628Z,2.75
2022-10-11T18:33:42.296Z,2.72
2022-10-11T18:36:10.481Z,3.20
2022-10-11T18:38:38.134Z,3.10
2022-10-11T18:41:08.899Z,3.00
2022-10-11T18:43:35.811Z,2.83
2022-10-11T18:46:06.615Z,3.67
2022-10-11T18:48:33.911Z,3.70
2022-10-11T18:51:09.759Z,4.60
2022-10-11T18:53:36.891Z,4.78
2022-10-11T18:56:06.691Z,4.72
2022-10-11T18:58:35.122Z,5.53
2022-10-11T19:01:07.074Z,5.03
2022-10-11T19:03:35.221Z,5.68
2022-10-11T19:06:08.308Z,5.80
2022-10-11T19:08:35.199Z,4.70
2022-10-11T19:11:06.609Z,5.35
2022-10-11T19:13:34.097Z,4.82
2022-10-11T19:16:12.458Z,4.97
2022-10-11T19:18:43.871Z,4.68
2022-10-11T19:21:12.923Z,5.00
2022-10-11T19:23:41.810Z,5.10
2022-10-11T19:26:30.080Z,6.07
2022-10-11T19:29:01.910Z,6.50
2022-10-11T19:31:29.123Z,6.03
2022-10-11T19:33:56.956Z,5.72
2022-10-11T19:36:23.723Z,5.75
2022-10-11T19:38:51.019Z,6.05
2022-10-11T19:41:19.823Z,6.60
2022-10-11T19:43:47.143Z,6.03
2022-10-11T19:46:20.328Z,5.47
2022-10-11T19:48:54.310Z,5.90
2022-10-11T19:51:26.024Z,5.72
2022-10-11T19:54:00.070Z,6.13
2022-10-11T19:56:28.201Z,5.90
2022-10-11T19:58:55.270Z,5.45
2022-10-11T20:01:24.374Z,5.93
2022-10-11T20:04:03.946Z,5.20
2022-10-11T20:06:37.219Z,6.40
2022-10-11T20:09:28.118Z,5.15
2022-10-11T20:11:51.475Z,4.32
2022-10-11T20:14:17.985Z,4.20
2022-10-11T20:16:44.429Z,4.93
2022-10-11T20:19:10.943Z,4.38
2022-10-11T20:21:37.405Z,4.75
2022-10-11T20:24:04.200Z,4.97
2022-10-11T20:26:31.545Z,5.28
2022-10-11T20:28:58.443Z,4.78
2022-10-11T20:31:31.349Z,4.63
2022-10-11T20:34:01.258Z,5.45
2022-10-11T20:36:30.153Z,4.78
2022-10-11T20:38:58.116Z,5.70
2022-10-11T20:41:27.205Z,4.60
2022-10-11T20:43:55.160Z,4.50
2022-10-11T20:46:23.882Z,3.60
2022-10-11T20:49:00.405Z,3.38
2022-10-11T20:51:29.174Z,3.60
2022-10-11T20:53:56.492Z,3.13
2022-10-11T20:56:23.698Z,3.65
2022-10-11T20:58:52.337Z,3.17
2022-10-11T21:01:21.554Z,3.80
2022-10-11T21:03:48.211Z,4.20
2022-10-11T21:06:14.658Z,4.35
2022-10-11T21:08:41.288Z,4.07
2022-10-11T21:11:08.418Z,4.15
2022-10-11T21:13:35.146Z,3.85
2022-10-11T21:16:11.157Z,4.18
2022-10-11T21:18:37.952Z,4.57
2022-10-11T21:21:12.045Z,3.90
2022-10-11T21:23:38.915Z,4.18
2022-10-11T21:26:10.686Z,4.10
2022-10-11T21:28:37.645Z,4.82
2022-10-11T21:31:10.023Z,4.10
2022-10-11T21:33:36.985Z,4.10
2022-10-11T21:36:05.361Z,3.90
2022-10-11T21:38:32.205Z,4.00
2022-10-11T21:40:58.777Z,4.25
2022-10-11T21:43:25.241Z,4.28
2022-10-11T21:45:51.869Z,4.43
2022-10-11T21:48:18.455Z,4.30
2022-10-11T21:50:44.913Z,4.13
2022-10-11T21:53:11.365Z,4.10
2022-10-11T21:55:37.852Z,3.17
2022-10-11T21:58:06.115Z,3.50
2022-10-11T22:00:32.590Z,3.60
2022-10-11T22:02:59.065Z,3.20
2022-10-11T22:05:25.613Z,3.60
2022-10-11T22:07:52.105Z,3.50
2022-10-11T22:10:18.611Z,3.38
2022-10-11T22:12:45.143Z,3.40
2022-10-11T22:15:11.603Z,3.63
2022-10-11T22:17:38.131Z,3.25
2022-10-11T22:20:04.842Z,3.25
2022-10-11T22:22:31.357Z,3.00
2022-10-11T22:24:57.847Z,3.17
2022-10-11T22:27:24.339Z,2.75
2022-10-11T22:29:50.823Z,3.45
2022-10-11T22:32:17.330Z,2.60
2022-10-11T22:34:44.342Z,3.33
2022-10-11T22:37:10.971Z,2.95
2022-10-11T22:39:37.679Z,3.13
2022-10-11T22:42:04.296Z,3.10
2022-10-11T22:44:30.781Z,3.35
2022-10-11T22:46:57.257Z,3.20
2022-10-11T22:49:23.737Z,3.47
2022-10-11T22:51:50.201Z,2.60
2022-10-11T22:54:16.691Z,2.72
2022-10-11T22:56:43.171Z,2.95
2022-10-11T22:59:09.741Z,2.57
2022-10-11T23:01:36.248Z,2.97
2022-10-11T23:04:02.809Z,3.10
2022-10-11T23:06:29.423Z,2.85
2022-10-11T23:08:55.984Z,2.55
2022-10-11T23:11:22.447Z,2.73
2022-10-11T23:13:48.930Z,3.28
2022-10-11T23:16:15.425Z,2.90
2022-10-11T23:18:42.687Z,2.55
2022-10-11T23:21:09.361Z,2.60
2022-10-11T23:23:36.042Z,2.43
2022-10-11T23:26:08.663Z,2.70
2022-10-11T23:28:35.682Z,2.60
2022-10-11T23:31:10.241Z,2.30
2022-10-11T23:33:36.762Z,2.43
2022-10-11T23:36:03.430Z,2.40
2022-10-11T23:38:30.089Z,2.60
2022-10-11T23:40:56.563Z,3.25
2022-10-11T23:43:23.454Z,2.60
2022-10-11T23:45:50.023Z,2.00
2022-10-11T23:48:16.482Z,2.70
2022-10-11T23:50:42.955Z,2.20
2022-10-11T23:53:10.584Z,2.43
2022-10-11T23:55:37.139Z,2.90
2022-10-11T23:58:03.632Z,2.57
